createdAt,value
2018-11-03T00:00:17.437Z,10.63
2018-11-03T00:02:51.141Z,12.10
2018-11-03T00:05:24.583Z,12.03
2018-11-03T00:07:58.303Z,9.60
2018-11-03T00:10:46.798Z,11.08
2018-11-03T00:13:20.208Z,13.50
2018-11-03T00:15:53.786Z,12.28
2018-11-03T00:18:27.399Z,12.65
2018-11-03T00:21:00.943Z,13.70
2018-11-03T00:23:41.005Z,11.88
2018-11-03T00:26:14.750Z,9.78
2018-11-03T00:28:48.408Z,11.28
2018-11-03T00:31:21.849Z,10.72
2018-11-03T00:33:55.523Z,10.30
2018-11-03T00:36:29.223Z,14.70
2018-11-03T00:39:05.008Z,13.78
2018-11-03T00:41:38.595Z,12.33
2018-11-03T00:44:12.059Z,14.15
2018-11-03T00:46:45.747Z,16.37
2018-11-03T00:49:19.610Z,16.20
2018-11-03T00:51:53.306Z,16.00
2018-11-03T00:54:27.192Z,15.70
2018-11-03T00:57:00.739Z,13.50
2018-11-03T00:59:34.255Z,12.88
2018-11-03T01:02:07.855Z,15.60
2018-11-03T01:04:41.388Z,15.63
2018-11-03T01:07:15.021Z,16.12
2018-11-03T01:09:55.544Z,13.55
2018-11-03T01:12:29.329Z,13.95
2018-11-03T01:15:02.969Z,13.18
2018-11-03T01:17:36.550Z,16.55
2018-11-03T01:20:11.959Z,16.30
2018-11-03T01:22:45.568Z,14.60
2018-11-03T01:25:19.192Z,17.80
2018-11-03T01:27:52.635Z,15.05
2018-11-03T01:30:26.293Z,15.88
2018-11-03T01:32:59.760Z,12.85
2018-11-03T01:35:33.293Z,13.65
2018-11-03T01:38:06.967Z,15.13
2018-11-03T01:40:40.703Z,14.10
2018-11-03T01:43:14.238Z,16.87
2018-11-03T01:45:47.863Z,13.05
2018-11-03T01:48:21.377Z,12.95
2018-11-03T01:50:55.585Z,14.60
2018-11-03T01:53:29.237Z,15.58
2018-11-03T01:56:02.820Z,16.87
2018-11-03T01:58:36.537Z,15.00
2018-11-03T02:01:10.000Z,14.68
2018-11-03T02:03:43.655Z,17.35
2018-11-03T02:06:17.241Z,15.75
2018-11-03T02:08:50.877Z,15.32
2018-11-03T02:11:24.748Z,16.42
2018-11-03T02:13:58.246Z,17.10
2018-11-03T02:16:31.842Z,16.02
2018-11-03T02:19:05.499Z,20.08
2018-11-03T02:21:39.136Z,15.98
2018-11-03T02:24:12.852Z,16.62
2018-11-03T02:26:46.504Z,14.55
2018-11-03T02:29:19.843Z,16.00
2018-11-03T02:31:53.268Z,17.07
2018-11-03T02:34:26.847Z,21.48
2018-11-03T02:37:00.515Z,18.35
2018-11-03T02:39:34.079Z,16.77
2018-11-03T02:42:07.616Z,17.00
2018-11-03T02:44:41.137Z,16.80
2018-11-03T02:47:14.749Z,21.10
2018-11-03T02:49:48.272Z,18.23
2018-11-03T02:52:21.941Z,17.37
2018-11-03T02:54:55.369Z,19.45
2018-11-03T02:57:35.769Z,19.75
2018-11-03T03:00:10.604Z,20.80
2018-11-03T03:02:44.161Z,17.95
2018-11-03T03:05:17.726Z,18.12
2018-11-03T03:07:51.271Z,17.25
2018-11-03T03:10:25.008Z,19.12
2018-11-03T03:12:58.669Z,19.60
2018-11-03T03:15:32.344Z,17.23
2018-11-03T03:18:05.870Z,16.05
2018-11-03T03:20:39.364Z,16.93
2018-11-03T03:23:13.184Z,19.10
2018-11-03T03:25:46.737Z,16.73
2018-11-03T03:28:20.559Z,15.68
2018-11-03T03:30:54.191Z,18.70
2018-11-03T03:33:34.514Z,15.68
2018-11-03T03:36:07.982Z,18.57
2018-11-03T03:38:41.468Z,16.87
2018-11-03T03:41:15.070Z,17.20
2018-11-03T03:43:48.658Z,17.42
2018-11-03T03:46:22.130Z,14.68
2018-11-03T03:48:55.741Z,17.02
2018-11-03T03:51:29.127Z,16.50
2018-11-03T03:54:03.193Z,15.65
2018-11-03T03:56:36.879Z,16.23
2018-11-03T03:59:10.486Z,16.93
2018-11-03T04:01:44.019Z,15.10
2018-11-03T04:04:17.461Z,17.67
2018-11-03T04:06:50.918Z,17.48
2018-11-03T04:09:24.556Z,19.50
2018-11-03T04:11:58.051Z,18.15
2018-11-03T04:14:31.612Z,16.82
2018-11-03T04:17:05.361Z,18.73
2018-11-03T04:19:38.839Z,16.50
2018-11-03T04:22:12.576Z,29.40
2018-11-03T04:24:46.087Z,19.17
2018-11-03T04:27:19.613Z,17.17
2018-11-03T04:29:53.388Z,15.72
2018-11-03T04:32:27.073Z,18.65
2018-11-03T04:35:00.572Z,18.10
2018-11-03T04:37:33.991Z,19.65
2018-11-03T04:40:09.667Z,17.07
2018-11-03T04:42:43.200Z,19.27
2018-11-03T04:45:16.919Z,17.52
2018-11-03T04:47:50.527Z,21.97
2018-11-03T04:50:24.287Z,18.62
2018-11-03T04:52:57.914Z,17.55
2018-11-03T04:55:31.512Z,22.77
2018-11-03T04:58:04.945Z,18.27
2018-11-03T05:00:38.710Z,18.62
2018-11-03T05:03:12.219Z,20.10
2018-11-03T05:05:45.812Z,21.33
2018-11-03T05:08:19.357Z,19.65
2018-11-03T05:10:59.807Z,20.65
2018-11-03T05:13:33.446Z,19.12
2018-11-03T05:16:07.117Z,18.57
2018-11-03T05:18:41.000Z,19.50
2018-11-03T05:21:14.795Z,22.35
2018-11-03T05:23:48.325Z,20.68
2018-11-03T05:26:21.864Z,19.77
2018-11-03T05:28:55.331Z,24.07
2018-11-03T05:31:28.984Z,20.43
2018-11-03T05:34:02.379Z,19.57
2018-11-03T05:36:35.900Z,19.70
2018-11-03T05:39:10.728Z,19.77
2018-11-03T05:41:44.335Z,22.80
2018-11-03T05:44:17.824Z,19.77
2018-11-03T05:46:51.669Z,20.10
2018-11-03T05:49:25.236Z,21.00
2018-11-03T05:51:58.868Z,19.95
2018-11-03T05:54:32.671Z,19.82
2018-11-03T05:57:06.349Z,19.85
2018-11-03T05:59:39.828Z,18.30
2018-11-03T06:02:20.157Z,21.35
2018-11-03T06:04:54.729Z,22.05
2018-11-03T06:07:28.451Z,21.45
2018-11-03T06:10:14.452Z,24.75
2018-11-03T06:12:47.990Z,21.30
2018-11-03T06:15:21.738Z,19.80
2018-11-03T06:17:55.184Z,19.12
2018-11-03T06:20:28.541Z,20.27
2018-11-03T06:23:03.909Z,19.50
2018-11-03T06:25:37.311Z,19.90
2018-11-03T06:28:14.023Z,22.17
2018-11-03T06:30:47.306Z,18.67
2018-11-03T06:33:20.807Z,18.98
2018-11-03T06:35:54.612Z,20.45
2018-11-03T06:38:28.377Z,20.35
2018-11-03T06:41:01.866Z,20.52
2018-11-03T06:43:35.178Z,20.43
2018-11-03T06:46:08.847Z,23.18
2018-11-03T06:48:42.749Z,21.07
2018-11-03T06:51:16.158Z,23.62
2018-11-03T06:53:49.602Z,27.17
2018-11-03T06:56:23.122Z,21.40
2018-11-03T06:58:56.478Z,20.90
2018-11-03T07:01:30.033Z,21.12
2018-11-03T07:04:03.504Z,23.90
2018-11-03T07:06:36.979Z,21.80
2018-11-03T07:09:11.614Z,21.75
2018-11-03T07:11:45.230Z,20.82
2018-11-03T07:14:18.667Z,22.40
2018-11-03T07:16:52.159Z,24.77
2018-11-03T07:19:25.913Z,22.73
2018-11-03T07:21:59.547Z,22.00
2018-11-03T07:24:34.187Z,23.80
2018-11-03T07:27:07.652Z,21.52
2018-11-03T07:29:41.174Z,24.10
2018-11-03T07:32:14.599Z,21.77
2018-11-03T07:34:48.100Z,21.65
2018-11-03T07:37:21.564Z,20.08
2018-11-03T07:39:55.055Z,21.15
2018-11-03T07:42:28.751Z,20.55
2018-11-03T07:45:02.301Z,22.90
2018-11-03T07:47:36.045Z,22.90
2018-11-03T07:50:11.181Z,21.05
2018-11-03T07:52:44.670Z,21.02
2018-11-03T07:55:18.174Z,22.85
2018-11-03T07:57:51.756Z,18.95
2018-11-03T08:00:25.395Z,20.70
2018-11-03T08:02:59.016Z,21.50
2018-11-03T08:05:32.787Z,19.60
2018-11-03T08:08:06.316Z,19.32
2018-11-03T08:10:40.051Z,25.57
2018-11-03T08:13:13.759Z,20.12
2018-11-03T08:15:47.364Z,21.23
2018-11-03T08:18:20.820Z,18.95
2018-11-03T08:20:54.595Z,19.32
2018-11-03T08:23:28.151Z,18.92
2018-11-03T08:26:01.589Z,20.52
2018-11-03T08:28:35.283Z,19.00
2018-11-03T08:31:08.853Z,20.60
2018-11-03T08:33:42.499Z,23.18
2018-11-03T08:36:16.189Z,18.27
2018-11-03T08:38:49.791Z,20.48
2018-11-03T08:41:23.920Z,20.23
2018-11-03T08:43:57.469Z,20.05
2018-11-03T08:46:31.494Z,20.40
2018-11-03T08:49:05.325Z,21.93
2018-11-03T08:51:38.895Z,25.20
2018-11-03T08:54:12.459Z,18.45
2018-11-03T08:56:46.194Z,23.00
2018-11-03T08:59:19.803Z,18.00
2018-11-03T09:01:53.373Z,19.48
2018-11-03T09:04:27.076Z,23.62
2018-11-03T09:07:00.751Z,22.17
2018-11-03T09:09:34.542Z,23.80
2018-11-03T09:12:08.260Z,21.97
2018-11-03T09:14:41.912Z,19.50
2018-11-03T09:17:15.308Z,22.60
2018-11-03T09:19:49.155Z,21.60
2018-11-03T09:22:22.831Z,19.48
2018-11-03T09:24:56.305Z,17.55
2018-11-03T09:27:30.190Z,15.75
2018-11-03T09:30:04.194Z,18.87
2018-11-03T09:32:37.876Z,16.00
2018-11-03T09:35:12.538Z,15.40
2018-11-03T09:37:46.606Z,17.02
2018-11-03T09:40:20.125Z,16.25
2018-11-03T09:42:53.742Z,15.93
2018-11-03T09:45:27.285Z,16.17
2018-11-03T09:48:00.869Z,16.30
2018-11-03T09:50:34.590Z,16.48
2018-11-03T09:53:08.296Z,17.25
2018-11-03T09:55:41.848Z,14.20
2018-11-03T09:58:15.495Z,13.18
2018-11-03T10:00:49.171Z,14.40
2018-11-03T10:03:22.732Z,15.25
2018-11-03T10:05:56.223Z,15.28
2018-11-03T10:08:29.871Z,13.85
2018-11-03T10:11:03.444Z,11.57
2018-11-03T10:13:36.977Z,11.20
2018-11-03T10:16:10.459Z,10.32
2018-11-03T10:18:44.044Z,7.78
2018-11-03T10:21:17.549Z,9.48
2018-11-03T10:23:51.089Z,7.47
2018-11-03T10:26:24.709Z,6.08
2018-11-03T10:28:58.311Z,6.37
2018-11-03T10:31:31.810Z,8.00
2018-11-03T10:34:05.291Z,8.88
2018-11-03T10:36:38.943Z,7.37
2018-11-03T10:39:12.983Z,7.33
2018-11-03T10:41:46.482Z,6.10
2018-11-03T10:44:19.991Z,6.97
2018-11-03T10:46:53.479Z,5.55
2018-11-03T10:49:26.963Z,6.92
2018-11-03T10:52:00.409Z,6.05
2018-11-03T10:54:34.022Z,8.18
2018-11-03T10:57:07.931Z,6.22
2018-11-03T10:59:41.515Z,9.93
2018-11-03T11:02:21.231Z,6.42
2018-11-03T11:05:00.607Z,7.37
2018-11-03T11:07:40.141Z,10.20
2018-11-03T11:10:19.502Z,11.25
2018-11-03T11:12:53.508Z,8.40
2018-11-03T11:15:26.997Z,7.72
2018-11-03T11:18:00.380Z,18.55
2018-11-03T11:20:33.924Z,10.20
2018-11-03T11:23:07.613Z,7.03
2018-11-03T11:25:41.026Z,6.40
2018-11-03T11:28:14.400Z,7.15
2018-11-03T11:30:47.792Z,5.53
2018-11-03T11:33:21.405Z,10.30
2018-11-03T11:35:55.089Z,6.97
2018-11-03T11:38:28.588Z,7.97
2018-11-03T11:41:02.098Z,7.58
2018-11-03T11:43:35.795Z,7.58
2018-11-03T11:48:45.289Z,6.50
2018-11-03T11:51:19.051Z,6.55
2018-11-03T11:53:52.625Z,6.65
2018-11-03T11:56:26.430Z,5.83
2018-11-03T11:59:00.179Z,8.10
2018-11-03T12:01:34.868Z,7.72
2018-11-03T12:04:08.898Z,7.33
2018-11-03T12:09:20.659Z,5.03
2018-11-03T12:14:33.482Z,5.05
2018-11-03T12:17:07.014Z,7.10
2018-11-03T12:19:40.715Z,6.35
2018-11-03T12:22:14.325Z,6.80
2018-11-03T12:24:47.807Z,7.28
2018-11-03T12:27:21.314Z,16.00
2018-11-03T12:29:54.780Z,16.45
2018-11-03T12:32:28.235Z,8.18
2018-11-03T12:35:01.892Z,8.98
2018-11-03T12:37:35.852Z,12.20
2018-11-03T12:40:14.774Z,8.15
2018-11-03T12:42:48.282Z,6.70
2018-11-03T12:45:21.941Z,8.38
2018-11-03T12:47:55.566Z,8.08
2018-11-03T12:50:29.106Z,10.40
2018-11-03T12:53:02.572Z,5.80
2018-11-03T12:55:35.963Z,7.70
2018-11-03T12:58:09.468Z,7.22
2018-11-03T13:00:43.045Z,5.53
2018-11-03T13:03:16.834Z,7.30
2018-11-03T13:05:50.426Z,6.47
2018-11-03T13:08:23.768Z,8.00
2018-11-03T13:10:57.377Z,5.35
2018-11-03T13:13:30.785Z,8.03
2018-11-03T13:16:04.432Z,4.72
2018-11-03T13:18:38.063Z,5.45
2018-11-03T13:21:11.536Z,8.18
2018-11-03T13:23:44.998Z,5.47
2018-11-03T13:26:18.600Z,7.80
2018-11-03T13:28:52.127Z,6.28
2018-11-03T13:31:25.495Z,5.80
2018-11-03T13:33:58.915Z,8.28
2018-11-03T13:36:32.560Z,3.60
2018-11-03T13:39:07.558Z,7.20
2018-11-03T13:41:41.263Z,10.35
2018-11-03T13:44:14.694Z,6.05
2018-11-03T13:46:48.315Z,8.80
2018-11-03T13:49:22.081Z,9.20
2018-11-03T13:51:55.512Z,6.30
2018-11-03T13:54:31.367Z,9.13
2018-11-03T13:57:04.969Z,7.65
2018-11-03T13:59:38.431Z,9.08
2018-11-03T14:02:11.981Z,14.85
2018-11-03T14:04:45.516Z,10.78
2018-11-03T14:07:19.231Z,16.15
2018-11-03T14:09:52.613Z,17.25
2018-11-03T14:12:26.256Z,7.78
2018-11-03T14:15:00.043Z,15.65
2018-11-03T14:17:33.567Z,11.38
2018-11-03T14:20:08.861Z,8.28
2018-11-03T14:22:43.340Z,9.05
2018-11-03T14:25:17.751Z,6.10
2018-11-03T14:27:51.432Z,4.22
2018-11-03T14:30:25.040Z,4.45
2018-11-03T14:32:58.660Z,4.50
2018-11-03T14:35:32.199Z,6.30
2018-11-03T14:38:05.644Z,7.40
2018-11-03T14:40:39.240Z,4.08
2018-11-03T14:43:13.008Z,4.42
2018-11-03T14:45:46.606Z,6.15
2018-11-03T14:48:20.243Z,3.60
2018-11-03T14:50:54.026Z,4.53
2018-11-03T14:53:27.500Z,3.45
2018-11-03T14:56:01.188Z,5.03
2018-11-03T14:58:34.943Z,4.05
2018-11-03T15:01:08.523Z,4.58
2018-11-03T15:03:42.166Z,7.65
2018-11-03T15:06:15.527Z,4.20
2018-11-03T15:08:48.953Z,3.15
2018-11-03T15:11:22.784Z,8.70
2018-11-03T15:13:56.670Z,4.28
2018-11-03T15:16:30.337Z,5.83
2018-11-03T15:19:04.453Z,8.40
2018-11-03T15:21:38.095Z,4.75
2018-11-03T15:24:11.725Z,7.33
2018-11-03T15:26:45.289Z,5.58
2018-11-03T15:29:18.729Z,4.15
2018-11-03T15:31:52.363Z,6.10
2018-11-03T15:34:25.966Z,4.60
2018-11-03T15:36:59.569Z,9.55
2018-11-03T15:39:33.011Z,5.47
2018-11-03T15:42:06.415Z,7.65
2018-11-03T15:44:39.847Z,3.42
2018-11-03T15:47:13.398Z,3.55
2018-11-03T15:49:46.946Z,8.50
2018-11-03T15:52:20.604Z,6.85
2018-11-03T15:54:54.430Z,8.65
2018-11-03T15:57:28.244Z,7.75
2018-11-03T16:00:01.890Z,5.40
2018-11-03T16:02:35.501Z,5.75
2018-11-03T16:05:08.837Z,11.57
2018-11-03T16:07:43.003Z,10.08
2018-11-03T16:10:16.732Z,10.82
2018-11-03T16:12:50.521Z,7.12
2018-11-03T16:15:24.006Z,7.03
2018-11-03T16:17:57.400Z,6.78
2018-11-03T16:20:31.056Z,5.92
2018-11-03T16:23:04.635Z,5.22
2018-11-03T16:25:38.283Z,6.62
2018-11-03T16:28:12.029Z,7.70
2018-11-03T16:30:45.367Z,6.55
2018-11-03T16:33:18.974Z,5.85
2018-11-03T16:35:52.401Z,4.53
2018-11-03T16:38:25.971Z,4.58
2018-11-03T16:40:59.350Z,7.35
2018-11-03T16:43:32.902Z,6.47
2018-11-03T16:46:06.461Z,4.65
2018-11-03T16:48:40.001Z,8.28
2018-11-03T16:51:13.564Z,11.53
2018-11-03T16:53:47.217Z,10.78
2018-11-03T16:56:20.815Z,12.80
2018-11-03T16:58:54.334Z,11.68
2018-11-03T17:01:27.702Z,11.53
2018-11-03T17:04:01.367Z,9.00
2018-11-03T17:06:34.961Z,12.40
2018-11-03T17:09:08.502Z,10.05
2018-11-03T17:11:42.015Z,14.85
2018-11-03T17:14:20.703Z,10.72
2018-11-03T17:16:54.829Z,12.88
2018-11-03T17:19:28.537Z,14.68
2018-11-03T17:22:02.040Z,12.40
2018-11-03T17:24:35.453Z,9.60
2018-11-03T17:27:09.134Z,12.05
2018-11-03T17:29:42.732Z,9.13
2018-11-03T17:32:16.337Z,9.63
2018-11-03T17:34:49.739Z,7.97
2018-11-03T17:37:23.283Z,9.40
2018-11-03T17:39:56.760Z,9.58
2018-11-03T17:42:30.370Z,9.00
2018-11-03T17:45:04.441Z,8.63
2018-11-03T17:47:37.862Z,9.45
2018-11-03T17:50:12.000Z,10.95
2018-11-03T17:52:45.424Z,11.68
2018-11-03T17:55:18.956Z,12.82
2018-11-03T17:57:52.372Z,12.68
2018-11-03T18:00:26.101Z,13.88
2018-11-03T18:02:59.449Z,11.40
2018-11-03T18:05:33.086Z,11.80
2018-11-03T18:08:06.624Z,13.25
2018-11-03T18:10:40.317Z,9.48
2018-11-03T18:13:13.920Z,10.00
2018-11-03T18:15:47.627Z,7.15
2018-11-03T18:18:21.388Z,11.65
2018-11-03T18:20:54.968Z,7.22
2018-11-03T18:23:28.733Z,7.05
2018-11-03T18:26:02.293Z,6.30
2018-11-03T18:28:35.970Z,8.28
2018-11-03T18:31:09.540Z,6.58
2018-11-03T18:33:43.175Z,10.13
2018-11-03T18:36:16.716Z,8.75
2018-11-03T18:38:50.393Z,7.33
2018-11-03T18:41:23.879Z,8.45
2018-11-03T18:43:57.258Z,8.88
2018-11-03T18:46:30.637Z,10.08
2018-11-03T18:49:04.187Z,10.20
2018-11-03T18:51:37.789Z,11.20
2018-11-03T18:54:11.469Z,9.95
2018-11-03T18:56:44.981Z,9.23
2018-11-03T18:59:18.779Z,13.15
2018-11-03T19:01:52.167Z,12.20
2018-11-03T19:04:25.673Z,13.15
2018-11-03T19:06:59.288Z,12.20
2018-11-03T19:09:32.767Z,11.15
2018-11-03T19:12:06.773Z,10.53
2018-11-03T19:14:40.355Z,8.68
2018-11-03T19:17:14.079Z,10.28
2018-11-03T19:19:47.495Z,8.88
2018-11-03T19:22:21.072Z,9.60
2018-11-03T19:24:55.031Z,8.65
2018-11-03T19:27:28.714Z,12.03
2018-11-03T19:30:04.089Z,8.45
2018-11-03T19:32:38.148Z,10.45
2018-11-03T19:35:11.885Z,10.40
2018-11-03T19:37:45.457Z,9.75
2018-11-03T19:40:19.221Z,11.33
2018-11-03T19:42:52.798Z,11.10
2018-11-03T19:45:26.663Z,10.43
2018-11-03T19:48:00.273Z,12.63
2018-11-03T19:50:33.926Z,11.12
2018-11-03T19:55:40.721Z,11.10
2018-11-03T19:58:14.281Z,12.05
2018-11-03T20:00:47.715Z,12.60
2018-11-03T20:03:21.200Z,12.40
2018-11-03T20:05:54.854Z,10.65
2018-11-03T20:08:28.424Z,12.28
2018-11-03T20:11:01.892Z,10.93
2018-11-03T20:13:35.320Z,9.03
2018-11-03T20:16:08.917Z,14.00
2018-11-03T20:18:42.384Z,9.88
2018-11-03T20:21:22.702Z,12.25
2018-11-03T20:23:56.304Z,15.05
2018-11-03T20:26:29.930Z,12.03
2018-11-03T20:29:03.535Z,11.45
2018-11-03T20:31:37.234Z,10.20
2018-11-03T20:34:10.677Z,9.78
2018-11-03T20:36:44.287Z,10.60
2018-11-03T20:39:17.817Z,9.63
2018-11-03T20:41:51.508Z,13.08
2018-11-03T20:44:25.015Z,13.65
2018-11-03T20:46:58.451Z,11.88
2018-11-03T20:49:31.878Z,13.53
2018-11-03T20:52:05.210Z,11.18
2018-11-03T20:54:38.607Z,11.80
2018-11-03T20:57:11.985Z,11.48
2018-11-03T20:59:45.597Z,9.43
2018-11-03T21:02:19.006Z,10.03
2018-11-03T21:04:52.537Z,9.63
2018-11-03T21:07:26.138Z,11.20
2018-11-03T21:09:59.665Z,9.78
2018-11-03T21:12:33.287Z,10.40
2018-11-03T21:15:07.035Z,10.98
2018-11-03T21:17:40.530Z,10.45
2018-11-03T21:20:14.003Z,10.53
2018-11-03T21:22:47.454Z,12.70
2018-11-03T21:25:20.802Z,12.28
2018-11-03T21:27:54.307Z,13.60
2018-11-03T21:30:27.901Z,12.65
2018-11-03T21:33:01.586Z,12.75
2018-11-03T21:35:35.151Z,16.45
2018-11-03T21:38:09.095Z,12.53
2018-11-03T21:40:42.457Z,12.00
2018-11-03T21:43:15.825Z,14.68
2018-11-03T21:45:49.477Z,13.13
2018-11-03T21:48:23.172Z,15.35
2018-11-03T21:50:56.762Z,18.05
2018-11-03T21:53:30.496Z,14.60
2018-11-03T21:56:04.749Z,16.35
2018-11-03T21:58:38.047Z,15.98
2018-11-03T22:01:11.710Z,16.93
2018-11-03T22:03:45.215Z,17.60
2018-11-03T22:06:18.893Z,18.17
2018-11-03T22:08:52.545Z,15.83
2018-11-03T22:11:26.014Z,17.95
2018-11-03T22:14:01.198Z,15.83
2018-11-03T22:16:35.066Z,16.15
2018-11-03T22:19:08.756Z,16.55
2018-11-03T22:21:42.396Z,17.52
2018-11-03T22:24:15.907Z,17.62
2018-11-03T22:26:49.396Z,17.07
2018-11-03T22:29:23.058Z,15.60
2018-11-03T22:31:56.760Z,19.77
2018-11-03T22:34:30.223Z,15.35
2018-11-03T22:37:03.688Z,14.38
2018-11-03T22:39:37.290Z,17.27
2018-11-03T22:42:11.032Z,17.32
2018-11-03T22:44:44.561Z,19.02
2018-11-03T22:47:18.152Z,16.35
2018-11-03T22:49:51.784Z,18.80
2018-11-03T22:52:25.523Z,18.20
2018-11-03T22:54:59.311Z,18.07
2018-11-03T22:57:32.708Z,17.55
2018-11-03T23:00:08.330Z,18.75
2018-11-03T23:02:42.757Z,21.95
2018-11-03T23:05:16.482Z,20.65
2018-11-03T23:07:49.972Z,21.10
2018-11-03T23:10:23.572Z,23.02
2018-11-03T23:12:57.136Z,17.00
2018-11-03T23:15:30.483Z,20.27
2018-11-03T23:18:04.218Z,22.22
2018-11-03T23:20:37.754Z,21.20
2018-11-03T23:23:11.191Z,21.90
2018-11-03T23:25:44.766Z,17.75
2018-11-03T23:28:18.142Z,16.37
2018-11-03T23:30:51.771Z,19.27
2018-11-03T23:33:25.325Z,19.27
2018-11-03T23:35:58.756Z,16.10
2018-11-03T23:38:32.244Z,18.15
2018-11-03T23:41:05.755Z,18.80
2018-11-03T23:43:39.346Z,20.62
2018-11-03T23:46:13.101Z,19.52
2018-11-03T23:48:46.763Z,19.07
2018-11-03T23:51:20.542Z,19.47
2018-11-03T23:53:54.111Z,17.87
2018-11-03T23:56:27.551Z,17.67
2018-11-03T23:59:01.069Z,19.82
